AirNav   ATP
 
 415 users online  

4I0 Mingo County Airport
Williamson, West Virginia, USA

GOING TO WILLIAMSON?


FAA INFORMATION EFFECTIVE 21 JUNE 2018

Location

FAA Identifier: 4I0
Lat/Long: 37-41-15.3650N / 082-15-39.5030W
37-41.256083N / 082-15.658383W
37.6876014 / -82.2609731
(estimated)
Elevation: 1575 ft. / 480.1 m (surveyed)
Variation: 07W (2010)
From city: 1 mile NE of WILLIAMSON, WV
Time zone: UTC -4 (UTC -5 during Standard Time)
Zip code: 25661

Airport Operations

Airport use: Open to the public
Activation date: 03/1974
Control tower: no
ARTCC: INDIANAPOLIS CENTER
FSS: ELKINS FLIGHT SERVICE STATION [703-724-4288]
NOTAMs facility: EKN (NOTAM-D service available)
Attendance: UNATNDD
Wind indicator: yes
Segmented circle: yes

Airport Communications

CTAF/UNICOM: 122.8
WX AWOS-3 at PBX (16 nm SW): 121.225 (606-437-6701)
WX AWOS-3 at SJS (18 nm W): 120.175 (606-298-4143)
WX AWOS-3PT at 6L4 (19 nm NE): 119.375 (304-752-0814)
  • UNICOM UNMON.

Airport Services

Fuel available: 100LL
Parking: tiedowns
Airframe service: NONE
Powerplant service: NONE
Bottled oxygen: NONE
Bulk oxygen: NONE

Runway Information

Runway 6/24

Dimensions: 3515 x 60 ft. / 1071 x 18 m
Surface: asphalt, in good condition
Weight bearing capacity: 
Single wheel: 9.0
Runway edge markings: RY MARKINGS FADED.
RUNWAY 6  RUNWAY 24
Gradient: 0.6%0.6%
Traffic pattern: leftleft
Displaced threshold: no515 ft.
Markings: nonprecision, in poor conditionnonprecision, in poor condition
Obstructions: 70 ft. hill, 201 ft. from runway, 120 ft. right of centerline
8 FT HILL, 0-200 FT DSTC, 120 FT R.
25 ft. hill, 201 ft. from runway, 120 ft. left of centerline
25 HILL, 0-201 FT FM THLD, 120 FT L.

Airport Ownership and Management from official FAA records

Ownership: Publicly-owned
Owner: MINGO CO ARPT AUTHORITY
MINGO CO COURTHOUSE
WILLIAMSON, WV 25661
Phone 304-235-0376
Manager: LEIGH ANN RAY
MINGO CO ARPT AUTHORITY, MINGO CO COURTHOUSE
WILLIAMSON, WV 25661
Phone (304) 234-0376
304-235-4581

Airport Operational Statistics

Aircraft based on the field: 11
Single engine airplanes: 11
    
Aircraft operations: avg 87/week *
55% local general aviation
44% transient general aviation
<1% military
* for 12-month period ending 31 December 2016

Additional Remarks

NO OPNS SUNSET-SUNRISE.
304 FT AGL TWR ON HILL 1/4 MILE 'SE' OF RY.
30 FT TREES, 15 FT FM RY EDGE.
RISING TERRAIN SURROUNDS ARPT.

Instrument Procedures

There are no published instrument procedures at 4I0.

Some nearby airports with instrument procedures:

KEBD - Appalachian Regional Airport (7 nm E)
KPBX - Pike County Airport-Hatcher Field (16 nm SW)
KSJS - Big Sandy Regional Airport (18 nm W)
6L4 - Logan County Airport (19 nm NE)
I16 - Kee Field Airport (34 nm E)
 
Loc | Ops | Rwys | IFR | FBO | Links
Com | Nav | Svcs | Stats | Notes


 
Area around 4I0 (Mingo County Airport)
 
Road maps at: MapQuest Bing Google
 
Aerial photo
WARNING: Photo may not be current or correct
Aerial photo of 4I0 (Mingo County Airport)
Photo by Jeff Mackey
Photo taken 28-Jun-2006

Do you have a better or more recent aerial photo of Mingo County Airport that you would like to share? If so, please send us your photo.

 
Sectional chart

 
Airport distance calculator
Flying to Mingo County Airport? Find the distance to fly.

From to 4I0

Sunrise and sunset
Times for 18-Jul-2018
 Local
(UTC-4)
 Zulu
(UTC)
Morning civil twilight05:5209:52
Sunrise06:2210:22
Sunset20:4800:48
Evening civil twilight21:1801:18

Current date and time
Zulu (UTC)  18-Jul-2018 06:44:32
Local (UTC-4)  18-Jul-2018 02:44:32
 
METAR
KPBX 
16nm SW 
180635Z AUTO 00000KT 10SM CLR 20/20 A3006 RMK AO2 T01960196
KSJS 
18nm W 
AWOS-3 120.175 606-298-4143
180635Z AUTO 00000KT 10SM CLR 19/19 A3005 RMK AO2 T01900190
K6L4 
19nm NE 
180635Z AUTO 00000KT 10SM CLR 19/17 A3005 RMK AO2
TAF
KSJS 
18nm W 
180520Z 1806/1906 VRB04KT P6SM FEW250 FM180900 00000KT 6SM BR SCT250 FM181300 VRB06KT P6SM FEW050 FEW250
NOTAMs
Click for the latest NOTAMs
NOTAMs are issued by the DoD/FAA and will open in a separate window not controlled by AirNav.

 

 
 

Would you like to see your business listed on this page?

 If your business provides an interesting product or service to pilots, flight crews, aircraft, or users of the Mingo County Airport, you should consider listing it here.  To start the listing process, click on the button below
 
Add a business
 

Other Pages about Mingo County Airport

Update a link
 
Copyright © AirNav, LLC. All rights reserved. Privacy Policy  Contact